Time;durP1;ratioP1;P1;durP2;ratioP2;P2;SDS_P1;SDS_P2;PMS_P1;PMS_P2;Temp;Humidity;BMP_temperature;BMP_pressure;BME280_temperature;BME280_humidity;BME280_pressure;Samples;Min_cycle;Max_cycle;Signal;HPM_P1;HPM_P2
2021/06/21 00:02:22;;;;;;;5.35;1.50;;;12.70;99.90;;;;;;4993793;28;20061;-75
2021/06/21 00:04:51;;;;;;;5.20;1.55;;;12.60;99.90;;;;;;4994331;28;20030;-74
2021/06/21 00:07:17;;;;;;;4.78;1.83;;;12.70;99.90;;;;;;4993917;28;20018;-74
2021/06/21 00:09:43;;;;;;;7.45;1.65;;;12.70;99.90;;;;;;4993920;28;20030;-75
2021/06/21 00:12:11;;;;;;;3.63;1.90;;;12.50;99.90;;;;;;4993921;28;20375;-75
2021/06/21 00:14:38;;;;;;;4.35;2.33;;;12.50;99.90;;;;;;4993924;28;20537;-75
2021/06/21 00:17:04;;;;;;;2.20;2.00;;;12.40;99.90;;;;;;4994094;28;20507;-75
2021/06/21 00:19:30;;;;;;;3.08;2.15;;;12.40;99.90;;;;;;4993642;28;20037;-75
2021/06/21 00:21:56;;;;;;;3.92;2.17;;;12.30;99.90;;;;;;4993477;28;20023;-74
2021/06/21 00:24:23;;;;;;;6.63;2.60;;;12.30;99.90;;;;;;4993551;28;20023;-74
2021/06/21 00:26:49;;;;;;;3.30;2.40;;;12.30;99.90;;;;;;4993579;28;20038;-74
2021/06/21 00:29:15;;;;;;;4.43;2.65;;;12.40;99.90;;;;;;4993430;28;20022;-74
2021/06/21 00:31:42;;;;;;;2.97;2.38;;;12.40;99.90;;;;;;4993595;28;20035;-75
2021/06/21 00:34:08;;;;;;;4.35;2.95;;;12.40;99.90;;;;;;4993489;28;20027;-74
2021/06/21 00:36:34;;;;;;;3.13;2.83;;;12.40;99.90;;;;;;4993317;28;20026;-83
2021/06/21 00:39:00;;;;;;;3.55;2.78;;;12.40;99.90;;;;;;4992787;28;20073;-77
2021/06/21 00:41:26;;;;;;;4.53;3.25;;;12.40;99.90;;;;;;4993152;28;20030;-77
2021/06/21 00:43:51;;;;;;;3.58;2.83;;;12.40;99.90;;;;;;4993363;28;20030;-77
2021/06/21 00:46:17;;;;;;;5.28;3.03;;;12.40;99.90;;;;;;4975894;28;20029;-77
2021/06/21 00:48:43;;;;;;;7.03;3.10;;;12.40;99.90;;;;;;4993298;28;20116;-77
2021/06/21 00:51:09;;;;;;;6.13;3.50;;;12.50;99.90;;;;;;4993221;28;20113;-77
2021/06/21 00:53:36;;;;;;;5.15;3.17;;;12.50;99.90;;;;;;4992903;28;20494;-77
2021/06/21 00:56:03;;;;;;;6.47;3.38;;;12.50;99.90;;;;;;4993509;28;20034;-78
2021/06/21 00:58:29;;;;;;;4.05;3.25;;;12.40;99.90;;;;;;4993156;28;20037;-76
2021/06/21 01:00:55;;;;;;;4.38;3.10;;;12.30;99.90;;;;;;4993004;28;20031;-76
2021/06/21 01:03:21;;;;;;;3.65;2.88;;;12.30;99.90;;;;;;4993041;28;20046;-75
2021/06/21 01:05:47;;;;;;;6.47;3.42;;;12.30;99.90;;;;;;4993194;28;20100;-75
2021/06/21 01:08:13;;;;;;;4.63;3.58;;;12.30;99.90;;;;;;4992861;28;20076;-75
2021/06/21 01:10:42;;;;;;;3.75;2.75;;;12.30;99.90;;;;;;4993089;28;20030;-76
2021/06/21 01:13:24;;;;;;;4.88;3.70;;;12.20;99.90;;;;;;4992781;28;20026;-76
2021/06/21 01:16:09;;;;;;;4.95;3.45;;;12.20;99.90;;;;;;4992911;28;20117;-76
2021/06/21 01:52:18;;;;;;;5.63;3.28;;;11.90;99.90;;;;;;5839590;23;20060;-72
2021/06/21 01:54:48;;;;;;;4.68;3.40;;;11.80;99.90;;;;;;5036021;28;20021;-72
2021/06/21 01:57:19;;;;;;;4.50;3.92;;;11.80;99.90;;;;;;5035710;28;20022;-72
2021/06/21 01:59:50;;;;;;;5.28;3.70;;;11.80;99.90;;;;;;5035936;28;20116;-72
2021/06/21 02:02:17;;;;;;;5.13;3.58;;;11.80;99.90;;;;;;5035574;28;20026;-72
2021/06/21 02:04:45;;;;;;;6.80;3.95;;;11.70;99.90;;;;;;5035974;28;20053;-72
2021/06/21 02:07:12;;;;;;;5.68;4.55;;;11.60;99.90;;;;;;5035466;28;20025;-72
2021/06/21 02:09:40;;;;;;;6.97;5.07;;;11.50;99.90;;;;;;5035866;28;20044;-72
2021/06/21 02:12:06;;;;;;;9.32;4.60;;;11.50;99.90;;;;;;5035614;28;20021;-72
2021/06/21 02:14:34;;;;;;;6.10;4.43;;;11.50;99.90;;;;;;5035430;28;20499;-73
2021/06/21 02:17:00;;;;;;;6.75;4.82;;;11.50;99.90;;;;;;5035534;28;20049;-72
2021/06/21 02:19:29;;;;;;;6.15;4.35;;;11.50;99.90;;;;;;5035289;28;20032;-72
2021/06/21 02:21:56;;;;;;;4.97;4.13;;;11.60;99.90;;;;;;5035722;28;20374;-74
2021/06/21 02:24:23;;;;;;;7.63;4.68;;;11.60;99.90;;;;;;5035466;28;20029;-72
2021/06/21 02:26:50;;;;;;;5.90;4.50;;;11.60;99.90;;;;;;5035658;28;20040;-72
2021/06/21 02:29:20;;;;;;;5.55;4.10;;;11.60;99.90;;;;;;5033866;28;20033;-74
2021/06/21 02:31:47;;;;;;;4.28;3.80;;;11.60;99.90;;;;;;5035656;28;20021;-71
2021/06/21 02:34:14;;;;;;;5.45;4.00;;;11.60;99.90;;;;;;5035157;28;20079;-73
2021/06/21 02:36:39;;;;;;;7.50;4.30;;;11.70;99.90;;;;;;5035486;28;20030;-72
2021/06/21 02:39:06;;;;;;;5.78;3.97;;;11.70;99.90;;;;;;5035115;28;20025;-71
2021/06/21 02:41:32;;;;;;;5.20;3.40;;;11.60;99.90;;;;;;5034864;28;20530;-72
2021/06/21 02:43:58;;;;;;;5.18;3.67;;;11.70;99.90;;;;;;5034829;28;20037;-71
2021/06/21 02:46:24;;;;;;;6.35;3.85;;;11.70;99.90;;;;;;5034904;28;20381;-73
2021/06/21 02:48:50;;;;;;;5.18;3.80;;;11.80;99.90;;;;;;5034828;28;20389;-72
2021/06/21 02:51:26;;;;;;;4.63;3.70;;;11.80;99.90;;;;;;5034759;28;20025;-72
2021/06/21 02:54:31;;;;;;;7.63;4.88;;;11.80;99.90;;;;;;5015696;28;20046;-72
2021/06/21 02:57:14;;;;;;;7.18;5.15;;;11.70;99.90;;;;;;4985153;28;20489;-71
2021/06/21 02:59:41;;;;;;;9.32;5.50;;;11.60;99.90;;;;;;5015053;28;20497;-72
2021/06/21 03:02:10;;;;;;;6.50;5.07;;;11.70;99.90;;;;;;5014280;28;20053;-71
2021/06/21 03:04:39;;;;;;;7.28;4.95;;;11.60;99.90;;;;;;5014835;28;20052;-71
2021/06/21 03:07:06;;;;;;;5.18;4.15;;;11.60;99.90;;;;;;5014846;28;20029;-73
2021/06/21 03:09:33;;;;;;;7.00;4.63;;;11.60;99.90;;;;;;5014626;28;20076;-71
2021/06/21 03:12:00;;;;;;;5.97;4.80;;;11.50;99.90;;;;;;5014636;28;20465;-71
2021/06/21 03:14:30;;;;;;;7.40;4.57;;;11.60;99.90;;;;;;5014427;28;20469;-71
2021/06/21 03:16:58;;;;;;;6.93;4.78;;;11.60;99.90;;;;;;5014665;28;20026;-71
2021/06/21 03:19:27;;;;;;;4.93;3.58;;;11.60;99.90;;;;;;5014283;28;20044;-71
2021/06/21 03:21:53;;;;;;;5.30;3.20;;;11.60;99.90;;;;;;5014698;28;20101;-71
2021/06/21 03:24:24;;;;;;;4.32;3.60;;;11.50;99.90;;;;;;5014178;28;20026;-72
2021/06/21 03:26:49;;;;;;;;;;;11.50;99.90;;;;;;5015174;28;20025;-72
2021/06/21 03:29:17;;;;;;;5.28;3.60;;;11.50;99.90;;;;;;5014141;28;20270;-73
2021/06/21 03:31:51;;;;;;;4.60;3.53;;;11.60;99.90;;;;;;5014297;28;20024;-71
2021/06/21 03:34:25;;;;;;;4.88;3.67;;;11.60;99.90;;;;;;5012786;28;20061;-72
2021/06/21 03:36:51;;;;;;;4.85;3.33;;;11.60;99.90;;;;;;5014588;28;20030;-72
2021/06/21 03:39:17;;;;;;;5.63;3.45;;;11.70;99.90;;;;;;5013954;28;20038;-72
2021/06/21 03:41:44;;;;;;;5.10;3.70;;;11.70;99.90;;;;;;5014163;28;20033;-74
2021/06/21 03:44:10;;;;;;;4.25;3.72;;;11.70;99.90;;;;;;5014148;28;20060;-72
2021/06/21 03:46:36;;;;;;;5.38;3.03;;;11.70;99.90;;;;;;5014035;28;20473;-74
2021/06/21 03:49:01;;;;;;;4.80;3.35;;;11.80;99.90;;;;;;5014320;28;20030;-72
2021/06/21 03:51:27;;;;;;;4.00;3.55;;;11.80;99.90;;;;;;5014056;28;20560;-72
2021/06/21 03:53:53;;;;;;;4.07;3.08;;;11.80;99.90;;;;;;5013788;28;20053;-73
2021/06/21 03:56:19;;;;;;;4.55;3.70;;;11.90;99.90;;;;;;5013885;28;20056;-74
2021/06/21 03:58:48;;;;;;;6.57;2.95;;;11.90;99.90;;;;;;5014087;28;20112;-72
2021/06/21 04:01:13;;;;;;;6.22;3.83;;;11.90;99.90;;;;;;5013733;28;20022;-72
2021/06/21 04:03:39;;;;;;;4.88;3.30;;;11.80;99.90;;;;;;5013625;28;20041;-72
2021/06/21 04:06:05;;;;;;;4.15;3.75;;;11.80;99.90;;;;;;5013744;28;20025;-74
2021/06/21 04:08:31;;;;;;;4.15;3.20;;;11.80;99.90;;;;;;5013511;28;20033;-73
2021/06/21 04:10:56;;;;;;;5.45;3.58;;;11.80;99.90;;;;;;5013635;28;20057;-70
2021/06/21 04:13:22;;;;;;;12.07;3.47;;;11.80;99.90;;;;;;5012361;28;20113;-71
2021/06/21 04:15:48;;;;;;;10.48;2.70;;;11.60;99.90;;;;;;5013547;28;20056;-73
2021/06/21 04:18:17;;;;;;;6.15;2.47;;;11.60;99.90;;;;;;5013431;28;20072;-71
2021/06/21 04:20:44;;;;;;;6.32;2.90;;;11.50;99.90;;;;;;5013332;28;20500;-73
2021/06/21 04:23:11;;;;;;;2.58;1.60;;;11.50;99.90;;;;;;5013469;28;20050;-71
2021/06/21 04:25:37;;;;;;;4.65;2.35;;;11.50;99.90;;;;;;5013155;28;20036;-73
2021/06/21 04:28:04;;;;;;;1.85;1.58;;;11.50;99.90;;;;;;5013175;28;20042;-73
2021/06/21 04:30:30;;;;;;;1.67;1.52;;;11.60;99.90;;;;;;5013027;28;20022;-74
2021/06/21 04:32:57;;;;;;;1.67;1.30;;;11.70;99.90;;;;;;5013024;28;20080;-77
2021/06/21 04:35:25;;;;;;;1.63;1.42;;;11.70;99.90;;;;;;5013375;28;20018;-80
2021/06/21 04:37:52;;;;;;;1.35;1.20;;;11.80;99.90;;;;;;5013237;28;20018;-78
2021/06/21 04:40:20;;;;;;;1.73;0.93;;;11.80;99.90;;;;;;5012960;28;20106;-79
2021/06/21 04:42:46;;;;;;;3.92;1.17;;;11.90;99.90;;;;;;5012785;28;20520;-77
2021/06/21 04:45:13;;;;;;;0.80;0.80;;;11.90;99.90;;;;;;5013342;28;20018;-79
2021/06/21 04:47:39;;;;;;;1.05;0.93;;;12.00;99.90;;;;;;5013197;28;20054;-81
2021/06/21 04:50:09;;;;;;;1.15;1.00;;;12.00;99.90;;;;;;5005948;28;20497;-72
2021/06/21 04:52:36;;;;;;;2.03;1.17;;;12.00;99.90;;;;;;4992278;28;20065;-71
2021/06/21 04:55:03;;;;;;;2.75;1.45;;;11.90;99.90;;;;;;4993320;28;20034;-69
2021/06/21 04:57:30;;;;;;;1.67;1.27;;;12.00;99.90;;;;;;4993292;28;20044;-72
2021/06/21 04:59:56;;;;;;;1.65;1.30;;;12.00;99.90;;;;;;4992956;28;20034;-68
2021/06/21 05:02:23;;;;;;;2.92;2.15;;;11.90;99.90;;;;;;4992866;28;20030;-71
2021/06/21 05:04:49;;;;;;;3.50;1.60;;;11.90;99.90;;;;;;4992922;28;20034;-75
2021/06/21 05:07:15;;;;;;;5.20;2.30;;;12.00;99.90;;;;;;4991117;28;20084;-74
2021/06/21 05:09:42;;;;;;;4.03;2.63;;;12.00;99.90;;;;;;4992274;28;20034;-75
2021/06/21 05:12:09;;;;;;;3.95;2.30;;;11.90;99.90;;;;;;4992688;28;20022;-74
2021/06/21 05:14:35;;;;;;;3.20;2.63;;;12.00;99.90;;;;;;4992930;28;20029;-75
2021/06/21 05:17:01;;;;;;;4.22;2.70;;;12.00;99.90;;;;;;4992907;28;20470;-75
2021/06/21 05:19:27;;;;;;;3.50;2.55;;;12.00;99.90;;;;;;4992855;28;20089;-75
2021/06/21 05:21:52;;;;;;;2.65;1.55;;;12.00;99.90;;;;;;4992921;28;20026;-75
2021/06/21 05:24:18;;;;;;;2.25;1.83;;;11.90;99.90;;;;;;4992454;28;20026;-76
2021/06/21 05:26:44;;;;;;;1.30;1.20;;;11.90;99.90;;;;;;4992872;28;20042;-77
2021/06/21 05:29:09;;;;;;;1.10;1.00;;;11.90;99.90;;;;;;4992931;28;20035;-73
2021/06/21 05:31:36;;;;;;;3.78;1.73;;;11.90;99.90;;;;;;4992755;28;20215;-71
2021/06/21 05:34:02;;;;;;;0.88;0.85;;;12.00;99.90;;;;;;4992584;28;20027;-76
2021/06/21 05:36:28;;;;;;;1.45;0.80;;;12.00;99.90;;;;;;4992484;28;20053;-74
2021/06/21 05:38:53;;;;;;;1.10;1.00;;;11.90;99.90;;;;;;4992427;28;20074;-73
2021/06/21 05:41:19;;;;;;;2.83;1.20;;;12.00;99.90;;;;;;4992479;28;20493;-74
2021/06/21 05:43:45;;;;;;;2.28;1.40;;;12.00;99.90;;;;;;4992455;28;20046;-75
2021/06/21 05:46:10;;;;;;;5.72;1.65;;;12.00;99.90;;;;;;4992832;28;20040;-76
2021/06/21 05:48:36;;;;;;;3.80;1.40;;;12.00;99.90;;;;;;4990867;28;20057;-75
2021/06/21 05:51:02;;;;;;;1.50;1.40;;;12.00;99.90;;;;;;4991733;28;20018;-73
2021/06/21 05:53:29;;;;;;;3.50;1.77;;;12.00;99.90;;;;;;4987392;28;20046;-75
2021/06/21 05:55:55;;;;;;;1.70;1.60;;;12.00;99.90;;;;;;4991910;28;20029;-73
2021/06/21 05:58:21;;;;;;;5.55;1.65;;;12.10;99.90;;;;;;4991738;28;20398;-73
2021/06/21 06:00:47;;;;;;;1.80;1.52;;;12.00;99.90;;;;;;4991666;28;20541;-72
2021/06/21 06:03:13;;;;;;;5.47;1.80;;;12.00;99.90;;;;;;4991892;28;20109;-72
2021/06/21 06:05:39;;;;;;;2.13;1.60;;;12.00;99.90;;;;;;4991803;28;20030;-70
2021/06/21 06:08:05;;;;;;;1.80;1.60;;;12.00;99.90;;;;;;4992251;28;20033;-71
2021/06/21 06:10:31;;;;;;;2.75;1.60;;;12.00;99.90;;;;;;4992110;28;20077;-71
2021/06/21 06:12:57;;;;;;;5.53;1.45;;;12.10;99.90;;;;;;4992281;28;20032;-72
2021/06/21 06:15:23;;;;;;;4.20;1.63;;;12.10;99.90;;;;;;4991788;28;20093;-75
2021/06/21 06:17:50;;;;;;;2.35;1.50;;;12.10;99.90;;;;;;4992344;28;20022;-66
2021/06/21 06:20:16;;;;;;;2.95;1.70;;;12.00;99.90;;;;;;4991918;28;20041;-66
2021/06/21 06:22:42;;;;;;;4.95;2.00;;;12.00;99.90;;;;;;4991906;28;20038;-66
2021/06/21 06:25:09;;;;;;;3.25;1.98;;;12.10;99.90;;;;;;4992136;28;20022;-66
2021/06/21 06:27:35;;;;;;;3.67;2.10;;;12.10;99.90;;;;;;4992063;28;20105;-68
2021/06/21 06:30:02;;;;;;;2.22;1.52;;;12.10;99.90;;;;;;4992333;28;20034;-67
2021/06/21 06:32:28;;;;;;;3.30;2.10;;;12.00;99.90;;;;;;4991834;28;20034;-68
2021/06/21 06:34:54;;;;;;;4.20;2.25;;;12.00;99.90;;;;;;4992101;28;20027;-64
2021/06/21 06:37:21;;;;;;;3.63;1.80;;;12.00;99.90;;;;;;4995209;28;20381;-65
2021/06/21 06:39:46;;;;;;;4.40;1.70;;;12.00;99.90;;;;;;4995667;28;20413;-65
2021/06/21 06:42:12;;;;;;;3.42;1.70;;;12.00;99.90;;;;;;4995192;28;20030;-64
2021/06/21 06:44:38;;;;;;;2.47;1.45;;;12.00;99.90;;;;;;4995448;28;20029;-67
2021/06/21 06:47:05;;;;;;;2.08;1.65;;;12.00;99.90;;;;;;4995855;28;20026;-67
2021/06/21 06:49:31;;;;;;;1.88;1.48;;;12.00;99.90;;;;;;4995441;28;20035;-67
2021/06/21 06:51:56;;;;;;;2.40;1.65;;;12.00;99.90;;;;;;4995221;28;20034;-67
2021/06/21 06:54:29;;;;;;;3.13;1.63;;;12.10;99.90;;;;;;4995306;28;20018;-67
2021/06/21 06:56:59;;;;;;;1.92;1.70;;;12.00;99.90;;;;;;4995269;28;20034;-67
2021/06/21 06:59:36;;;;;;;2.33;1.70;;;12.10;99.90;;;;;;4995404;28;20081;-66
2021/06/21 07:02:23;;;;;;;3.05;1.77;;;12.10;99.90;;;;;;4995424;28;20027;-78
2021/06/21 07:04:49;;;;;;;2.83;2.53;;;12.10;99.90;;;;;;4994264;28;20483;-74
2021/06/21 07:07:17;;;;;;;2.42;2.22;;;12.10;99.90;;;;;;4994451;28;20479;-74
2021/06/21 07:09:43;;;;;;;5.28;2.65;;;12.10;99.90;;;;;;4994857;28;20490;-76
2021/06/21 07:12:09;;;;;;;3.25;2.20;;;12.10;99.90;;;;;;4994971;28;20037;-76
2021/06/21 07:14:35;;;;;;;8.43;3.13;;;12.20;99.90;;;;;;4995040;28;20026;-72
2021/06/21 07:17:01;;;;;;;5.65;3.22;;;12.10;99.90;;;;;;4994687;28;20635;-75
2021/06/21 07:19:27;;;;;;;5.45;3.30;;;12.10;99.90;;;;;;4994581;28;20122;-74
2021/06/21 07:21:53;;;;;;;4.43;3.25;;;12.10;99.90;;;;;;4994653;28;20109;-74
2021/06/21 07:24:20;;;;;;;7.78;3.50;;;12.00;99.90;;;;;;4993296;28;20117;-73
2021/06/21 07:26:47;;;;;;;4.25;2.85;;;11.90;99.90;;;;;;4993304;28;20209;-75
2021/06/21 07:29:13;;;;;;;7.32;2.97;;;11.90;99.90;;;;;;4994685;28;20022;-77
2021/06/21 07:31:39;;;;;;;6.00;3.40;;;11.90;99.90;;;;;;4994610;28;20033;-77
2021/06/21 07:34:05;;;;;;;5.22;2.50;;;11.80;99.90;;;;;;4994586;28;20080;-77
2021/06/21 07:36:33;;;;;;;5.22;3.70;;;11.90;99.90;;;;;;4994123;28;20022;-78
2021/06/21 07:38:59;;;;;;;4.78;3.13;;;11.90;99.90;;;;;;4994437;28;20493;-75
2021/06/21 07:41:25;;;;;;;4.57;3.35;;;11.90;99.90;;;;;;4994572;28;20041;-75
2021/06/21 07:43:51;;;;;;;5.85;2.70;;;12.30;99.90;;;;;;4994509;28;20039;-80
2021/06/21 07:46:17;;;;;;;2.10;1.75;;;12.30;99.90;;;;;;4994785;28;20037;-76
2021/06/21 07:48:43;;;;;;;2.42;1.55;;;12.50;99.90;;;;;;4994138;28;20034;-76
2021/06/21 07:51:11;;;;;;;2.20;1.60;;;12.40;99.90;;;;;;4994237;28;20076;-76
2021/06/21 07:53:38;;;;;;;2.47;1.80;;;12.40;99.90;;;;;;4993930;28;20493;-76
2021/06/21 07:56:08;;;;;;;2.83;1.95;;;12.40;99.90;;;;;;4994360;28;20054;-78
2021/06/21 07:58:37;;;;;;;2.20;2.00;;;12.40;99.90;;;;;;4994382;28;20061;-77
2021/06/21 08:01:04;;;;;;;2.22;2.03;;;12.30;99.90;;;;;;4994524;28;20031;-76
2021/06/21 08:03:29;;;;;;;4.13;2.05;;;12.30;99.90;;;;;;4993840;28;20038;-77
2021/06/21 08:05:55;;;;;;;2.75;2.15;;;12.40;99.90;;;;;;4994190;28;20532;-77
2021/06/21 08:08:21;;;;;;;3.25;2.78;;;12.40;99.90;;;;;;4993996;28;20532;-77
2021/06/21 08:10:47;;;;;;;4.15;3.15;;;12.40;99.90;;;;;;4993734;28;20065;-77
2021/06/21 08:13:12;;;;;;;4.63;3.30;;;12.40;99.90;;;;;;4993961;28;20040;-77
2021/06/21 08:15:38;;;;;;;6.32;3.20;;;12.40;99.90;;;;;;4993649;28;20054;-77
2021/06/21 08:18:04;;;;;;;19.75;4.63;;;12.50;99.90;;;;;;4993857;28;20027;-76
2021/06/21 08:20:32;;;;;;;4.57;3.10;;;12.50;99.90;;;;;;4993377;28;20022;-75
2021/06/21 08:22:58;;;;;;;3.50;2.83;;;13.10;99.90;;;;;;4993565;28;20034;-75
2021/06/21 08:25:23;;;;;;;5.90;3.28;;;13.20;99.90;;;;;;4993020;28;20110;-75
2021/06/21 08:27:49;;;;;;;5.97;4.05;;;13.00;99.90;;;;;;4993545;28;20050;-75
2021/06/21 08:30:15;;;;;;;5.20;4.18;;;12.90;99.90;;;;;;4993466;28;20034;-75
2021/06/21 08:32:41;;;;;;;6.57;4.97;;;12.90;99.90;;;;;;4993599;28;20023;-75
2021/06/21 08:35:09;;;;;;;6.03;4.63;;;12.90;99.90;;;;;;4993687;28;20113;-75
2021/06/21 08:37:35;;;;;;;10.18;4.78;;;12.90;99.90;;;;;;4993250;28;20026;-75
2021/06/21 08:40:04;;;;;;;8.43;5.63;;;12.90;99.90;;;;;;4993314;28;20027;-75
2021/06/21 08:42:30;;;;;;;7.47;5.18;;;12.90;99.90;;;;;;4993380;28;20040;-75
2021/06/21 08:44:57;;;;;;;5.32;4.20;;;12.90;99.90;;;;;;4993311;28;20124;-75
2021/06/21 08:47:25;;;;;;;5.38;3.97;;;13.00;99.90;;;;;;4993393;28;20018;-75
2021/06/21 08:49:53;;;;;;;5.38;3.70;;;13.00;99.90;;;;;;4993163;28;20030;-76
2021/06/21 08:52:19;;;;;;;4.65;3.88;;;13.00;99.90;;;;;;4993125;28;20417;-76
2021/06/21 08:54:46;;;;;;;5.28;4.15;;;13.00;99.90;;;;;;4993163;28;20574;-75
2021/06/21 08:57:12;;;;;;;4.50;4.05;;;13.10;99.90;;;;;;4993145;28;20023;-75
2021/06/21 08:59:40;;;;;;;4.85;4.20;;;13.10;99.90;;;;;;4992403;28;20069;-76
2021/06/21 09:02:06;;;;;;;7.38;4.70;;;13.20;99.90;;;;;;4992950;28;20023;-76
2021/06/21 09:04:37;;;;;;;6.47;4.40;;;13.20;99.90;;;;;;4992841;28;20106;-75
2021/06/21 09:07:16;;;;;;;6.68;4.63;;;13.20;99.90;;;;;;4993259;28;20386;-75
2021/06/21 09:09:42;;;;;;;6.40;4.63;;;13.20;99.90;;;;;;4992829;28;20062;-75
2021/06/21 09:12:08;;;;;;;7.20;5.32;;;13.20;99.90;;;;;;4993156;28;20511;-75
2021/06/21 09:14:36;;;;;;;7.43;5.80;;;13.20;99.90;;;;;;4992662;28;20026;-75
2021/06/21 09:17:08;;;;;;;7.25;5.63;;;13.20;99.90;;;;;;4992771;28;20463;-75
2021/06/21 09:19:44;;;;;;;10.15;6.72;;;13.30;99.90;;;;;;4992787;28;20034;-75
2021/06/21 09:22:28;;;;;;;9.68;7.30;;;13.30;99.90;;;;;;4992824;28;20057;-75
2021/06/21 09:24:55;;;;;;;11.73;7.40;;;13.40;99.90;;;;;;4992611;28;20042;-75
2021/06/21 09:27:22;;;;;;;12.90;7.68;;;13.50;99.90;;;;;;4992742;28;20025;-75
2021/06/21 09:29:49;;;;;;;8.30;7.38;;;13.50;99.90;;;;;;4992742;28;20045;-75
2021/06/21 09:32:15;;;;;;;10.70;8.93;;;13.50;99.90;;;;;;4992634;28;20027;-75
2021/06/21 09:34:43;;;;;;;13.40;9.50;;;13.60;99.90;;;;;;4992351;28;20060;-75
2021/06/21 09:37:13;;;;;;;13.25;9.43;;;13.70;99.90;;;;;;4992671;28;20030;-82
2021/06/21 09:39:42;;;;;;;16.98;10.77;;;14.00;99.90;;;;;;4992260;28;20085;-77
2021/06/21 09:42:24;;;;;;;17.60;12.15;;;14.20;99.90;;;;;;4992666;28;20030;-76
2021/06/21 09:44:51;;;;;;;17.95;12.85;;;14.20;99.90;;;;;;4992452;28;20084;-76
2021/06/21 09:47:37;;;;;;;17.92;13.38;;;14.20;99.90;;;;;;4992586;28;20043;-74
2021/06/21 09:50:21;;;;;;;22.10;15.73;;;14.30;99.90;;;;;;4992734;28;20044;-78
2021/06/21 09:53:02;;;;;;;20.05;13.85;;;14.50;99.90;;;;;;4993498;28;20050;-78
2021/06/21 09:55:53;;;;;;;18.98;14.02;;;14.50;99.90;;;;;;4992419;28;20389;-78
2021/06/21 09:58:21;;;;;;;22.20;16.80;;;14.70;99.90;;;;;;4989621;28;20046;-78
2021/06/21 10:00:52;;;;;;;23.90;16.38;;;14.80;99.90;;;;;;4992207;28;20022;-81
2021/06/21 10:03:26;;;;;;;21.80;15.20;;;14.90;99.90;;;;;;4991056;28;20038;-81
2021/06/21 10:06:00;;;;;;;23.73;15.65;;;14.90;99.90;;;;;;4992504;28;20054;-82
2021/06/21 10:08:46;;;;;;;24.25;17.02;;;15.00;99.90;;;;;;4992234;28;20030;-80
2021/06/21 10:11:27;;;;;;;25.13;16.83;;;15.10;99.90;;;;;;4993020;28;20078;-80
2021/06/21 10:13:54;;;;;;;26.42;18.65;;;15.10;99.90;;;;;;4993659;28;20031;-82
2021/06/21 10:16:19;;;;;;;26.00;17.95;;;15.20;99.90;;;;;;4995556;28;20018;-76
2021/06/21 10:18:45;;;;;;;28.05;17.77;;;15.20;99.90;;;;;;4995452;28;20442;-76
2021/06/21 10:21:11;;;;;;;24.70;16.17;;;15.40;99.90;;;;;;4994128;28;20023;-77
2021/06/21 10:23:37;;;;;;;21.88;15.07;;;15.40;99.90;;;;;;4995227;28;20077;-79
2021/06/21 10:26:03;;;;;;;24.67;16.15;;;15.50;99.90;;;;;;4996084;28;20026;-78
2021/06/21 10:28:29;;;;;;;21.60;15.45;;;15.60;99.90;;;;;;4996089;28;20022;-79
2021/06/21 10:30:55;;;;;;;34.97;19.42;;;15.60;99.90;;;;;;4995993;28;20022;-79
2021/06/21 10:33:22;;;;;;;33.22;18.90;;;15.50;99.90;;;;;;4995940;28;20104;-77
2021/06/21 10:35:47;;;;;;;31.50;19.13;;;15.60;99.90;;;;;;4995765;28;20109;-78
2021/06/21 10:38:16;;;;;;;26.38;17.42;;;15.60;99.90;;;;;;4995761;28;20168;-79
2021/06/21 10:40:56;;;;;;;23.85;16.48;;;15.60;99.90;;;;;;4994732;28;20022;-79
2021/06/21 10:43:40;;;;;;;24.08;18.30;;;15.60;99.90;;;;;;4994833;28;20030;-79
2021/06/21 10:46:18;;;;;;;30.17;19.80;;;15.60;99.90;;;;;;4993882;28;20022;-79
2021/06/21 10:49:08;;;;;;;27.55;19.52;;;15.70;99.90;;;;;;4993266;28;20021;-79
2021/06/21 10:51:33;;;;;;;26.50;18.02;;;15.80;99.90;;;;;;4994174;28;20029;-79
2021/06/21 10:53:59;;;;;;;32.75;18.85;;;15.90;99.90;;;;;;4994860;28;20046;-80
2021/06/21 10:56:46;;;;;;;26.00;17.83;;;15.90;99.90;;;;;;4994945;28;20081;-80
2021/06/21 10:59:18;;;;;;;27.60;18.15;;;16.00;99.90;;;;;;4994634;28;20031;-78
2021/06/21 11:01:56;;;;;;;25.15;18.05;;;16.10;99.90;;;;;;4995275;28;20029;-76
2021/06/21 11:04:45;;;;;;;23.73;16.15;;;16.10;99.90;;;;;;4995454;28;20039;-76
2021/06/21 11:07:12;;;;;;;21.08;15.88;;;16.20;99.90;;;;;;4987537;28;20117;-76
2021/06/21 11:09:46;;;;;;;25.83;18.30;;;16.20;99.90;;;;;;4994999;28;20030;-76
2021/06/21 11:12:21;;;;;;;29.05;18.45;;;16.30;99.90;;;;;;4995092;28;20102;-76
2021/06/21 11:15:10;;;;;;;26.98;18.30;;;16.40;99.90;;;;;;4995046;28;20033;-76
2021/06/21 11:17:42;;;;;;;22.05;14.82;;;16.40;99.90;;;;;;4994893;28;20041;-76
2021/06/21 11:20:41;;;;;;;28.02;18.17;;;16.50;99.90;;;;;;4994863;28;20378;-75
2021/06/21 11:23:10;;;;;;;27.33;17.42;;;16.50;99.90;;;;;;4994644;28;20375;-77
2021/06/21 11:25:47;;;;;;;22.70;16.17;;;16.60;99.90;;;;;;4994896;28;20034;-76
2021/06/21 11:28:39;;;;;;;24.45;16.67;;;16.70;99.90;;;;;;4994751;28;20026;-76
2021/06/21 11:31:23;;;;;;;22.63;17.25;;;16.80;99.90;;;;;;4994894;28;20030;-77
2021/06/21 11:33:56;;;;;;;26.38;17.90;;;16.90;99.90;;;;;;4994574;28;20053;-76
2021/06/21 11:36:44;;;;;;;25.13;18.30;;;17.00;99.90;;;;;;4994120;28;20054;-77
2021/06/21 11:39:21;;;;;;;25.05;17.95;;;17.20;99.90;;;;;;4994492;28;20034;-75
2021/06/21 11:42:00;;;;;;;24.17;16.85;;;17.30;99.90;;;;;;4994417;28;20493;-76
2021/06/21 11:44:48;;;;;;;17.58;9.50;;;17.40;99.90;;;;;;4994341;28;20039;-72
2021/06/21 11:47:21;;;;;;;21.58;14.48;;;17.60;99.90;;;;;;4994549;28;20034;-73
2021/06/21 11:50:07;;;;;;;20.13;13.85;;;17.80;99.90;;;;;;4994267;28;20026;-73
2021/06/21 11:52:33;;;;;;;22.52;16.42;;;17.90;99.90;;;;;;4993947;28;20089;-76
2021/06/21 11:55:17;;;;;;;21.77;15.02;;;18.00;99.90;;;;;;4994345;28;20030;-78
2021/06/21 11:57:48;;;;;;;17.85;14.65;;;18.00;99.90;;;;;;4994413;28;20045;-77
2021/06/21 12:00:29;;;;;;;18.38;14.60;;;18.00;99.90;;;;;;4994342;28;20463;-78
2021/06/21 12:03:08;;;;;;;20.10;15.05;;;18.00;99.90;;;;;;4994159;28;20031;-78
2021/06/21 12:05:34;;;;;;;18.48;15.32;;;18.00;99.90;;;;;;4994204;28;20074;-80
2021/06/21 12:08:14;;;;;;;18.25;15.13;;;18.00;99.90;;;;;;4993987;28;20080;-79
2021/06/21 12:10:40;;;;;;;18.40;14.30;;;18.10;99.90;;;;;;4993908;28;20441;-73
2021/06/21 12:13:06;;;;;;;15.20;9.93;;;18.10;99.90;;;;;;4994187;28;20041;-71
2021/06/21 12:15:35;;;;;;;16.58;13.20;;;18.20;99.90;;;;;;4993852;28;20034;-77
2021/06/21 12:18:02;;;;;;;16.92;13.70;;;18.30;99.90;;;;;;4993410;28;20117;-77
2021/06/21 12:20:28;;;;;;;18.95;14.52;;;18.50;99.90;;;;;;4993970;28;20438;-77
2021/06/21 12:22:58;;;;;;;19.65;13.82;;;18.50;99.90;;;;;;4992324;28;20053;-78
2021/06/21 12:25:26;;;;;;;;;;;18.50;99.90;;;;;;4994326;28;20066;-77
2021/06/21 12:27:53;;;;;;;15.98;13.32;;;18.50;99.90;;;;;;4993830;28;20002;-77
2021/06/21 12:30:39;;;;;;;23.55;14.45;;;18.50;99.90;;;;;;4993495;28;20030;-77
2021/06/21 12:33:24;;;;;;;19.67;14.68;;;18.60;99.90;;;;;;4993129;28;20085;-77
2021/06/21 12:36:11;;;;;;;19.17;14.55;;;18.60;99.90;;;;;;4993564;28;20033;-77
2021/06/21 12:38:45;;;;;;;17.85;15.07;;;18.60;99.90;;;;;;4993443;28;20026;-78
2021/06/21 12:41:15;;;;;;;22.92;14.65;;;18.60;99.90;;;;;;4993616;28;20026;-78
2021/06/21 12:43:52;;;;;;;17.90;14.65;;;18.70;99.90;;;;;;4993244;28;20395;-77
2021/06/21 12:46:19;;;;;;;16.10;14.23;;;18.80;99.90;;;;;;4993310;28;20035;-77
2021/06/21 12:48:45;;;;;;;17.35;14.02;;;18.80;99.90;;;;;;4991960;28;20390;-77
2021/06/21 12:51:13;;;;;;;18.05;13.77;;;18.90;99.90;;;;;;4993352;28;20565;-77
2021/06/21 12:53:47;;;;;;;21.00;13.70;;;18.90;99.90;;;;;;4992898;28;20140;-77
2021/06/21 12:56:28;;;;;;;17.40;13.27;;;18.90;99.90;;;;;;4993189;28;20030;-77
2021/06/21 12:58:56;;;;;;;14.75;13.13;;;19.00;99.90;;;;;;4993062;28;20105;-77
2021/06/21 13:01:34;;;;;;;16.60;13.77;;;19.10;99.90;;;;;;4993033;28;20022;-78
2021/06/21 13:04:12;;;;;;;17.40;14.00;;;19.10;99.90;;;;;;4993270;28;20034;-78
2021/06/21 13:06:40;;;;;;;16.23;13.20;;;19.10;99.90;;;;;;4992968;28;20018;-78
2021/06/21 13:09:08;;;;;;;17.58;14.13;;;19.20;99.90;;;;;;4993206;28;20031;-78
2021/06/21 13:11:50;;;;;;;17.73;15.20;;;19.20;99.90;;;;;;4992823;28;20026;-78
2021/06/21 13:14:17;;;;;;;20.35;14.60;;;19.30;99.90;;;;;;4993035;28;20054;-78
2021/06/21 13:16:43;;;;;;;17.20;13.30;;;19.40;99.90;;;;;;4992711;28;20038;-78
2021/06/21 13:19:18;;;;;;;16.23;14.32;;;19.50;99.90;;;;;;4993425;28;20377;-78
2021/06/21 13:21:47;;;;;;;15.15;13.55;;;19.60;99.90;;;;;;4992639;28;20022;-78
2021/06/21 13:24:29;;;;;;;19.17;15.05;;;19.60;99.90;;;;;;4992947;28;20034;-78
2021/06/21 13:26:55;;;;;;;16.48;14.60;;;19.80;99.90;;;;;;4992513;28;20018;-78